createdAt,value
2019-05-13T00:02:28.052Z,12.64
2019-05-13T00:05:00.016Z,12.65
2019-05-13T00:07:34.097Z,12.69
2019-05-13T00:10:08.531Z,12.70
2019-05-13T00:12:40.553Z,12.70
2019-05-13T00:15:13.954Z,12.71
2019-05-13T00:17:45.751Z,12.70
2019-05-13T00:20:17.632Z,12.68
2019-05-13T00:22:50.516Z,12.69
2019-05-13T00:25:24.154Z,12.70
2019-05-13T00:27:55.953Z,12.72
2019-05-13T00:30:27.838Z,12.74
2019-05-13T00:32:59.986Z,12.77
2019-05-13T00:35:33.918Z,12.82
2019-05-13T00:38:05.259Z,12.85
2019-05-13T00:40:37.118Z,12.90
2019-05-13T00:43:09.539Z,12.94
2019-05-13T00:45:44.317Z,12.99
2019-05-13T00:48:16.169Z,13.10
2019-05-13T00:50:47.842Z,13.22
2019-05-13T00:53:19.799Z,13.31
2019-05-13T00:55:53.659Z,13.39
2019-05-13T00:58:25.352Z,13.45
2019-05-13T01:00:57.024Z,13.51
2019-05-13T01:03:28.866Z,13.57
2019-05-13T01:06:00.813Z,13.62
2019-05-13T01:08:34.142Z,13.68
2019-05-13T01:11:07.115Z,13.72
2019-05-13T01:13:38.883Z,13.76
2019-05-13T01:16:10.622Z,13.81
2019-05-13T01:18:43.256Z,13.83
2019-05-13T01:21:15.178Z,13.86
2019-05-13T01:23:47.133Z,13.88
2019-05-13T01:26:19.204Z,13.90
2019-05-13T01:28:50.945Z,13.92
2019-05-13T01:31:23.844Z,13.94
2019-05-13T01:33:57.452Z,13.94
2019-05-13T01:36:29.712Z,13.93
2019-05-13T01:39:04.144Z,13.91
2019-05-13T01:41:35.161Z,13.90
2019-05-13T01:44:07.085Z,13.88
2019-05-13T01:46:39.111Z,13.86
2019-05-13T01:49:10.963Z,13.84
2019-05-13T01:51:44.021Z,13.85
2019-05-13T01:54:16.225Z,13.86
2019-05-13T01:56:48.088Z,13.88
2019-05-13T01:59:20.043Z,13.88
2019-05-13T02:01:53.923Z,13.86
2019-05-13T02:04:25.307Z,13.87
2019-05-13T02:06:56.957Z,13.88
2019-05-13T02:09:29.309Z,13.89
2019-05-13T02:12:01.187Z,13.88
2019-05-13T02:14:34.075Z,13.89
2019-05-13T02:17:06.242Z,13.90
2019-05-13T02:19:41.280Z,13.90
2019-05-13T02:22:14.600Z,13.90
2019-05-13T02:24:46.659Z,13.89
2019-05-13T02:27:18.365Z,13.88
2019-05-13T02:29:50.172Z,13.88
2019-05-13T02:32:23.478Z,13.84
2019-05-13T02:34:55.216Z,13.82
2019-05-13T02:37:29.414Z,13.79
2019-05-13T02:40:03.706Z,13.78
2019-05-13T02:42:33.566Z,13.76
2019-05-13T02:45:05.962Z,13.76
2019-05-13T02:47:37.650Z,13.76
2019-05-13T02:50:12.228Z,13.78
2019-05-13T02:52:44.295Z,13.79
2019-05-13T02:55:16.575Z,13.83
2019-05-13T02:57:48.508Z,13.84
2019-05-13T03:00:23.556Z,13.86
2019-05-13T03:02:55.906Z,13.87
2019-05-13T03:05:27.443Z,13.89
2019-05-13T03:08:03.040Z,13.92
2019-05-13T03:10:34.065Z,13.99
2019-05-13T03:13:06.131Z,14.06
2019-05-13T03:15:42.690Z,14.18
2019-05-13T03:18:13.752Z,14.32
2019-05-13T03:20:46.003Z,14.47
2019-05-13T03:23:17.838Z,14.62
2019-05-13T03:25:49.674Z,14.76
2019-05-13T03:28:23.031Z,14.89
2019-05-13T03:30:56.798Z,15.03
2019-05-13T03:33:28.845Z,15.13
2019-05-13T03:36:06.402Z,15.25
2019-05-13T03:38:53.741Z,15.32
2019-05-13T03:41:12.184Z,15.40
2019-05-13T03:43:44.595Z,15.47
2019-05-13T03:46:17.878Z,15.55
2019-05-13T03:48:52.998Z,15.62
2019-05-13T03:51:24.979Z,15.70
2019-05-13T03:53:57.529Z,15.80
2019-05-13T03:56:32.609Z,15.91
2019-05-13T03:59:02.989Z,16.03
2019-05-13T04:01:34.983Z,16.15
2019-05-13T04:04:06.614Z,16.31
2019-05-13T04:06:38.593Z,16.44
2019-05-13T04:09:22.414Z,16.55
2019-05-13T04:11:43.772Z,16.66
2019-05-13T04:14:15.295Z,16.78
2019-05-13T04:16:48.983Z,16.85
2019-05-13T04:19:23.265Z,16.90
2019-05-13T04:21:54.467Z,16.91
2019-05-13T04:24:26.224Z,16.92
2019-05-13T04:26:58.099Z,16.99
2019-05-13T04:29:32.877Z,17.03
2019-05-13T04:32:05.073Z,17.11
2019-05-13T04:34:36.919Z,17.22
2019-05-13T04:37:08.643Z,17.32
2019-05-13T04:39:50.007Z,17.46
2019-05-13T04:42:13.750Z,17.59
2019-05-13T04:44:45.529Z,17.75
2019-05-13T04:47:17.188Z,17.88
2019-05-13T04:49:49.193Z,18.00
2019-05-13T04:52:22.232Z,18.15
2019-05-13T04:54:54.450Z,18.25
2019-05-13T04:57:26.162Z,18.35
2019-05-13T04:59:58.216Z,18.45
2019-05-13T05:02:55.008Z,18.51
2019-05-13T05:05:33.215Z,18.48
2019-05-13T05:08:28.405Z,18.43
2019-05-13T05:11:22.229Z,18.40
2019-05-13T05:14:02.477Z,18.41
2019-05-13T05:17:03.220Z,18.41
2019-05-13T05:20:04.068Z,18.38
2019-05-13T05:23:12.221Z,18.40
2019-05-13T05:26:01.774Z,18.52
2019-05-13T05:28:55.981Z,18.62
2019-05-13T05:31:45.632Z,18.80
2019-05-13T05:34:35.245Z,19.09
2019-05-13T05:37:45.419Z,19.36
2019-05-13T05:40:31.003Z,19.61
2019-05-13T05:42:56.895Z,19.78
2019-05-13T05:45:28.586Z,19.87
2019-05-13T05:48:02.255Z,19.93
2019-05-13T05:50:35.836Z,19.97
2019-05-13T05:53:07.501Z,19.99
2019-05-13T05:55:41.848Z,20.02
2019-05-13T05:58:14.772Z,20.09
2019-05-13T06:00:48.546Z,20.21
2019-05-13T06:03:21.948Z,20.35
2019-05-13T06:05:54.635Z,20.51
2019-05-13T06:08:29.110Z,20.68
2019-05-13T06:11:01.620Z,20.83
2019-05-13T06:13:33.643Z,21.01
2019-05-13T06:16:05.729Z,21.17
2019-05-13T06:18:37.679Z,21.31
2019-05-13T06:21:12.072Z,21.36
2019-05-13T06:23:43.155Z,21.39
2019-05-13T06:26:14.798Z,21.45
2019-05-13T06:28:46.434Z,21.49
2019-05-13T06:31:21.572Z,21.51
2019-05-13T06:33:53.455Z,21.53
2019-05-13T06:36:26.003Z,21.40
2019-05-13T06:38:57.856Z,21.37
2019-05-13T06:41:32.352Z,21.29
2019-05-13T06:44:05.825Z,21.15
2019-05-13T06:46:37.466Z,20.99
2019-05-13T06:49:09.310Z,20.94
2019-05-13T06:51:42.433Z,20.94
2019-05-13T06:54:14.095Z,20.89
2019-05-13T06:56:45.696Z,20.84
2019-05-13T06:59:17.341Z,20.84
2019-05-13T07:01:51.221Z,20.71
2019-05-13T07:04:22.532Z,20.66
2019-05-13T07:07:08.773Z,20.57
2019-05-13T07:09:27.906Z,20.55
2019-05-13T07:12:02.507Z,20.50
2019-05-13T07:14:33.562Z,20.53
2019-05-13T07:17:05.297Z,20.57
2019-05-13T07:19:36.949Z,20.56
2019-05-13T07:22:08.599Z,20.51
2019-05-13T07:24:41.455Z,20.51
2019-05-13T07:27:13.498Z,20.55
2019-05-13T07:29:45.505Z,20.58
2019-05-13T07:32:17.718Z,20.57
2019-05-13T07:34:52.865Z,20.67
2019-05-13T07:37:23.417Z,20.73
2019-05-13T07:39:55.218Z,20.86
2019-05-13T07:42:27.410Z,21.04
2019-05-13T07:45:01.380Z,21.18
2019-05-13T07:47:32.559Z,21.29
2019-05-13T07:50:07.186Z,21.53
2019-05-13T07:52:39.128Z,21.81
2019-05-13T07:55:12.115Z,22.11
2019-05-13T07:57:43.875Z,22.26
2019-05-13T08:00:16.051Z,22.44
2019-05-13T08:02:47.712Z,22.65
2019-05-13T08:05:22.224Z,22.58
2019-05-13T08:07:53.083Z,22.57
2019-05-13T08:10:24.647Z,22.47
2019-05-13T08:12:56.262Z,22.42
2019-05-13T08:15:28.136Z,22.33
2019-05-13T08:18:02.111Z,22.36
2019-05-13T08:20:33.160Z,22.32
2019-05-13T08:23:04.879Z,22.30
2019-05-13T08:25:36.618Z,22.31
2019-05-13T08:28:08.302Z,22.34
2019-05-13T08:30:42.673Z,22.37
2019-05-13T08:33:13.624Z,22.36
2019-05-13T08:35:47.197Z,22.51
2019-05-13T08:38:18.767Z,22.74
2019-05-13T08:40:51.240Z,22.95
2019-05-13T08:43:23.102Z,23.19
2019-05-13T08:45:55.758Z,23.46
2019-05-13T08:48:27.755Z,23.54
2019-05-13T08:50:59.327Z,23.74
2019-05-13T08:53:31.721Z,23.77
2019-05-13T08:56:03.744Z,23.80
2019-05-13T08:58:35.668Z,23.86
2019-05-13T09:01:07.338Z,23.82
2019-05-13T09:03:41.433Z,23.77
2019-05-13T09:06:12.199Z,23.72
2019-05-13T09:08:43.867Z,23.51
2019-05-13T09:11:15.668Z,23.41
2019-05-13T09:13:47.404Z,23.22
2019-05-13T09:16:21.417Z,23.13
2019-05-13T09:18:52.620Z,23.07
2019-05-13T09:21:24.294Z,22.97
2019-05-13T09:23:55.909Z,23.03
2019-05-13T09:26:27.671Z,23.10
2019-05-13T09:29:01.452Z,23.16
2019-05-13T09:31:32.702Z,23.16
2019-05-13T09:34:04.475Z,23.13
2019-05-13T09:36:36.161Z,23.05
2019-05-13T09:39:09.119Z,23.15
2019-05-13T09:41:44.651Z,23.32
2019-05-13T09:44:16.022Z,23.55
2019-05-13T09:46:47.566Z,23.69
2019-05-13T09:49:20.875Z,23.59
2019-05-13T09:51:52.539Z,23.59
2019-05-13T09:54:32.910Z,23.52
2019-05-13T09:57:03.155Z,23.33
2019-05-13T09:59:34.902Z,23.23
2019-05-13T10:02:08.613Z,23.17
2019-05-13T10:04:43.184Z,23.32
2019-05-13T10:07:12.739Z,23.54
2019-05-13T10:09:48.217Z,23.82
2019-05-13T10:12:18.095Z,24.07
2019-05-13T10:14:50.049Z,24.31
2019-05-13T10:17:22.423Z,24.46
2019-05-13T10:20:12.499Z,24.55
2019-05-13T10:22:44.374Z,24.65
2019-05-13T10:25:18.917Z,24.87
2019-05-13T10:27:51.144Z,25.19
2019-05-13T10:30:23.124Z,25.19
2019-05-13T10:32:59.319Z,25.20
2019-05-13T10:35:29.622Z,25.18
2019-05-13T10:38:04.324Z,25.10
2019-05-13T10:40:38.040Z,25.07
2019-05-13T10:43:27.131Z,25.18
2019-05-13T10:45:43.609Z,25.22
2019-05-13T10:48:15.416Z,25.37
2019-05-13T10:50:47.074Z,25.54
2019-05-13T10:53:18.739Z,25.51
2019-05-13T10:55:52.204Z,25.46
2019-05-13T10:58:23.707Z,25.52
2019-05-13T11:00:56.815Z,25.48
2019-05-13T11:03:28.392Z,25.20
2019-05-13T11:06:00.084Z,25.04
2019-05-13T11:08:33.012Z,25.01
2019-05-13T11:11:05.235Z,25.21
2019-05-13T11:13:52.303Z,25.21
2019-05-13T11:16:12.214Z,25.13
2019-05-13T11:18:44.123Z,24.35
2019-05-13T11:21:16.193Z,24.35
2019-05-13T11:23:48.287Z,24.17
2019-05-13T11:26:22.107Z,23.82
2019-05-13T11:28:53.187Z,23.61
2019-05-13T11:31:24.777Z,23.40
2019-05-13T11:33:56.716Z,23.24
2019-05-13T11:36:28.507Z,23.19
2019-05-13T11:39:03.030Z,23.08
2019-05-13T11:41:33.560Z,22.95
2019-05-13T11:44:12.566Z,22.82
2019-05-13T11:46:38.604Z,22.76
2019-05-13T11:49:11.834Z,22.70
2019-05-13T11:51:43.730Z,22.73
2019-05-13T11:54:15.371Z,22.84
2019-05-13T11:56:50.570Z,22.98
2019-05-13T11:59:22.039Z,23.09
2019-05-13T12:01:54.794Z,23.16
2019-05-13T12:04:26.814Z,23.18
2019-05-13T12:06:58.460Z,23.17
2019-05-13T12:09:31.990Z,23.30
2019-05-13T12:12:03.747Z,23.48
2019-05-13T12:14:48.426Z,23.57
2019-05-13T12:17:13.907Z,23.67
2019-05-13T12:19:43.320Z,23.97
2019-05-13T12:22:14.952Z,24.44
2019-05-13T12:24:46.685Z,24.86
2019-05-13T12:27:18.260Z,24.95
2019-05-13T12:29:52.827Z,24.83
2019-05-13T12:32:24.302Z,24.54
2019-05-13T12:34:55.903Z,24.42
2019-05-13T12:37:27.567Z,24.18
2019-05-13T12:40:02.896Z,23.86
2019-05-13T12:42:33.790Z,23.69
2019-05-13T12:45:10.203Z,23.50
2019-05-13T12:47:43.244Z,23.58
2019-05-13T12:50:15.529Z,23.64
2019-05-13T12:52:47.218Z,23.72
2019-05-13T12:55:18.870Z,23.69
2019-05-13T12:57:52.662Z,23.74
2019-05-13T13:00:23.960Z,23.87
2019-05-13T13:02:55.659Z,24.01
2019-05-13T13:05:33.176Z,24.04
2019-05-13T13:08:18.547Z,23.74
2019-05-13T13:13:07.544Z,23.38
2019-05-13T13:15:43.480Z,23.25
2019-05-13T13:18:14.290Z,23.20
2019-05-13T13:20:46.025Z,23.15
2019-05-13T13:23:17.661Z,22.94
2019-05-13T13:25:54.186Z,22.83
2019-05-13T13:28:23.960Z,22.57
2019-05-13T13:30:55.931Z,22.42
2019-05-13T13:33:28.585Z,22.17
2019-05-13T13:36:04.331Z,21.89
2019-05-13T13:38:33.853Z,21.55
2019-05-13T13:41:05.873Z,21.24
2019-05-13T13:43:37.611Z,21.02
2019-05-13T13:46:25.147Z,20.77
2019-05-13T13:51:17.392Z,20.59
2019-05-13T13:53:49.156Z,20.39
2019-05-13T13:56:25.180Z,20.27
2019-05-13T13:58:54.232Z,20.19
2019-05-13T14:01:27.118Z,20.16
2019-05-13T14:04:02.797Z,20.13
2019-05-13T14:06:58.943Z,20.69
2019-05-13T14:07:09.024Z,23.47
2019-05-13T14:07:21.538Z,20.22
2019-05-13T14:09:07.962Z,20.29
2019-05-13T14:11:41.797Z,20.33
2019-05-13T14:14:12.790Z,20.29
2019-05-13T14:16:46.765Z,20.33
2019-05-13T14:19:18.712Z,20.40
2019-05-13T14:21:52.541Z,20.51
2019-05-13T14:24:24.047Z,20.64
2019-05-13T14:26:55.645Z,20.64
2019-05-13T14:29:38.630Z,20.68
2019-05-13T14:32:01.393Z,20.73
2019-05-13T14:34:34.177Z,20.81
2019-05-13T14:37:06.373Z,20.83
2019-05-13T14:39:37.912Z,20.78
2019-05-13T14:42:11.577Z,20.83
2019-05-13T14:44:42.996Z,20.84
2019-05-13T14:47:14.581Z,20.90
2019-05-13T14:49:46.181Z,20.90
2019-05-13T14:52:17.885Z,20.95
2019-05-13T14:54:51.444Z,20.96
2019-05-13T14:57:23.223Z,21.05
2019-05-13T14:59:54.876Z,21.10
2019-05-13T15:02:26.832Z,21.09
2019-05-13T15:04:59.179Z,20.98
2019-05-13T15:07:32.216Z,20.92
2019-05-13T15:10:05.789Z,20.78
2019-05-13T15:12:37.233Z,20.64
2019-05-13T15:15:09.769Z,20.64
2019-05-13T15:17:42.634Z,20.54
2019-05-13T15:20:16.627Z,20.45
2019-05-13T15:22:48.635Z,20.43
2019-05-13T15:25:22.123Z,20.44
2019-05-13T15:27:54.027Z,20.41
2019-05-13T15:30:25.715Z,20.39
2019-05-13T15:32:57.396Z,20.52
2019-05-13T15:38:01.345Z,21.18
2019-05-13T15:40:33.070Z,21.38
2019-05-13T15:43:04.955Z,21.42
2019-05-13T15:45:36.797Z,21.31
2019-05-13T15:48:08.607Z,21.05
2019-05-13T15:50:42.224Z,20.66
2019-05-13T15:53:13.514Z,20.47
2019-05-13T15:55:45.193Z,20.28
2019-05-13T15:58:16.892Z,20.19
2019-05-13T16:00:48.606Z,20.08
2019-05-13T16:03:20.284Z,20.06
2019-05-13T16:05:53.542Z,20.07
2019-05-13T16:08:25.244Z,20.07
2019-05-13T16:10:57.440Z,20.03
2019-05-13T16:13:29.531Z,20.02
2019-05-13T16:16:02.796Z,20.07
2019-05-13T16:18:34.733Z,20.03
2019-05-13T16:21:06.691Z,19.96
2019-05-13T16:23:38.756Z,19.84
2019-05-13T16:26:11.634Z,19.76
2019-05-13T16:28:44.011Z,19.63
2019-05-13T16:31:15.779Z,19.58
2019-05-13T16:33:47.715Z,19.48
2019-05-13T16:36:22.103Z,19.38
2019-05-13T16:38:52.874Z,19.20
2019-05-13T16:41:24.956Z,19.09
2019-05-13T16:43:56.712Z,18.95
2019-05-13T16:46:31.423Z,18.82
2019-05-13T16:49:02.094Z,18.72
2019-05-13T16:51:33.550Z,18.63
2019-05-13T16:54:05.599Z,18.53
2019-05-13T16:56:41.822Z,18.42
2019-05-13T16:59:12.256Z,18.34
2019-05-13T17:01:45.880Z,18.25
2019-05-13T17:04:17.643Z,18.14
2019-05-13T17:06:49.497Z,18.05
2019-05-13T17:09:22.485Z,17.94
2019-05-13T17:11:57.006Z,17.84
2019-05-13T17:14:32.294Z,17.76
2019-05-13T17:17:03.698Z,17.68
2019-05-13T17:19:35.563Z,17.61
2019-05-13T17:22:07.604Z,17.53
2019-05-13T17:24:42.652Z,17.45
2019-05-13T17:27:14.517Z,17.38
2019-05-13T17:29:46.360Z,17.31
2019-05-13T17:32:22.315Z,17.25
2019-05-13T17:34:53.464Z,17.19
2019-05-13T17:37:26.659Z,17.15
2019-05-13T17:40:11.848Z,17.11
2019-05-13T17:42:44.116Z,17.05
2019-05-13T17:45:18.023Z,17.02
2019-05-13T17:47:51.851Z,17.01
2019-05-13T17:50:24.919Z,16.98
2019-05-13T17:52:58.314Z,16.96
2019-05-13T17:55:30.156Z,16.95
2019-05-13T17:58:08.159Z,16.94
2019-05-13T18:00:41.496Z,16.92
2019-05-13T18:03:13.536Z,16.90
2019-05-13T18:05:47.529Z,16.87
2019-05-13T18:08:20.028Z,16.83
2019-05-13T18:10:52.088Z,16.78
2019-05-13T18:13:26.693Z,16.72
2019-05-13T18:16:02.538Z,16.67
2019-05-13T18:18:43.130Z,16.64
2019-05-13T18:21:08.855Z,16.60
2019-05-13T18:23:41.469Z,16.54
2019-05-13T18:26:16.067Z,16.49
2019-05-13T18:28:46.883Z,16.45
2019-05-13T18:31:18.796Z,16.43
2019-05-13T18:33:53.958Z,16.39
2019-05-13T18:36:31.664Z,16.36
2019-05-13T18:39:05.090Z,16.32
2019-05-13T18:41:37.383Z,16.30
2019-05-13T18:44:14.101Z,16.26
2019-05-13T18:46:46.396Z,16.23
2019-05-13T18:49:18.190Z,16.16
2019-05-13T18:51:49.913Z,16.09
2019-05-13T18:54:21.754Z,16.06
2019-05-13T18:56:53.817Z,16.03
2019-05-13T18:59:26.005Z,16.02
2019-05-13T19:02:01.080Z,16.00
2019-05-13T19:04:32.905Z,15.99
2019-05-13T19:07:17.556Z,15.98
2019-05-13T19:09:49.222Z,15.98
2019-05-13T19:12:22.123Z,15.95
2019-05-13T19:14:54.961Z,15.94
2019-05-13T19:17:32.079Z,15.92
2019-05-13T19:20:02.994Z,15.91
2019-05-13T19:22:37.936Z,15.93
2019-05-13T19:25:11.990Z,15.93
2019-05-13T19:27:43.491Z,15.93
2019-05-13T19:30:21.399Z,15.93
2019-05-13T19:32:54.176Z,15.94
2019-05-13T19:35:26.845Z,15.95
2019-05-13T19:38:01.495Z,15.94
2019-05-13T19:40:33.960Z,15.94
2019-05-13T19:43:05.925Z,15.93
2019-05-13T19:45:37.585Z,15.91
2019-05-13T19:48:11.862Z,15.92
2019-05-13T19:50:43.251Z,15.93
2019-05-13T19:53:15.296Z,15.96
2019-05-13T19:55:47.370Z,15.98
2019-05-13T19:58:21.507Z,15.98
2019-05-13T20:00:52.723Z,15.98
2019-05-13T20:03:26.182Z,16.00
2019-05-13T20:05:58.095Z,16.01
2019-05-13T20:08:32.006Z,16.03
2019-05-13T20:11:03.933Z,16.04
2019-05-13T20:13:38.592Z,16.05
2019-05-13T20:16:11.703Z,16.06
2019-05-13T20:18:43.787Z,16.07
2019-05-13T20:21:15.459Z,16.07
2019-05-13T20:23:47.669Z,16.06
2019-05-13T20:26:21.693Z,16.04
2019-05-13T20:28:54.392Z,16.04
2019-05-13T20:31:27.963Z,16.01
2019-05-13T20:34:01.704Z,15.98
2019-05-13T20:36:33.119Z,15.93
2019-05-13T20:39:05.977Z,15.89
2019-05-13T20:41:38.165Z,15.84
2019-05-13T20:44:10.130Z,15.82
2019-05-13T20:46:42.348Z,15.80
2019-05-13T20:49:14.344Z,15.79
2019-05-13T20:51:46.223Z,15.79
2019-05-13T20:54:18.182Z,15.78
2019-05-13T20:56:51.805Z,15.78
2019-05-13T20:59:23.521Z,15.78
2019-05-13T21:01:55.297Z,15.76
2019-05-13T21:04:27.963Z,15.75
2019-05-13T21:07:01.926Z,15.73
2019-05-13T21:09:33.235Z,15.72
2019-05-13T21:12:05.198Z,15.70
2019-05-13T21:14:38.566Z,15.66
2019-05-13T21:17:12.215Z,15.64
2019-05-13T21:19:43.624Z,15.62
2019-05-13T21:22:15.826Z,15.60
2019-05-13T21:24:47.554Z,15.56
2019-05-13T21:27:19.437Z,15.53
2019-05-13T21:29:52.028Z,15.47
2019-05-13T21:32:24.975Z,15.42
2019-05-13T21:34:56.960Z,15.33
2019-05-13T21:37:29.019Z,15.24
2019-05-13T21:40:00.969Z,15.12
2019-05-13T21:42:33.148Z,15.03
2019-05-13T21:45:07.454Z,14.94
2019-05-13T21:47:39.414Z,14.88
2019-05-13T21:50:11.811Z,14.81
2019-05-13T21:52:44.106Z,14.76
2019-05-13T21:55:15.857Z,14.72
2019-05-13T21:57:47.593Z,14.66
2019-05-13T22:00:23.713Z,14.57
2019-05-13T22:02:56.328Z,14.48
2019-05-13T22:05:28.244Z,14.41
2019-05-13T22:08:01.659Z,14.33
2019-05-13T22:10:33.534Z,14.25
2019-05-13T22:13:05.415Z,14.18
2019-05-13T22:15:37.475Z,14.10
2019-05-13T22:18:11.334Z,14.04
2019-05-13T22:20:49.739Z,13.97
2019-05-13T22:23:17.684Z,13.91
2019-05-13T22:25:51.451Z,13.86
2019-05-13T22:28:22.918Z,13.81
2019-05-13T22:30:54.785Z,13.76
2019-05-13T22:33:26.927Z,13.72
2019-05-13T22:36:01.368Z,13.66
2019-05-13T22:38:32.659Z,13.62
2019-05-13T22:41:04.473Z,13.57
2019-05-13T22:43:36.526Z,13.53
2019-05-13T22:46:08.709Z,13.48
2019-05-13T22:48:41.899Z,13.45
2019-05-13T22:51:13.958Z,13.43
2019-05-13T22:53:45.721Z,13.41
2019-05-13T22:56:17.583Z,13.41
2019-05-13T22:58:51.650Z,13.43
2019-05-13T23:01:23.332Z,13.41
2019-05-13T23:03:55.338Z,13.40
2019-05-13T23:06:27.552Z,13.36
2019-05-13T23:09:01.740Z,13.32
2019-05-13T23:11:33.463Z,13.28
2019-05-13T23:14:09.967Z,13.23
2019-05-13T23:16:38.704Z,13.19
2019-05-13T23:19:11.156Z,13.15
2019-05-13T23:21:42.942Z,13.11
2019-05-13T23:24:15.738Z,13.05
2019-05-13T23:26:47.485Z,13.01
2019-05-13T23:29:21.423Z,12.97
2019-05-13T23:31:52.823Z,12.94
2019-05-13T23:34:24.588Z,12.92
2019-05-13T23:36:56.448Z,12.86
2019-05-13T23:39:28.310Z,12.85
2019-05-13T23:42:01.547Z,12.85
2019-05-13T23:44:33.151Z,12.81
2019-05-13T23:47:04.942Z,12.76
2019-05-13T23:49:36.870Z,12.73
2019-05-13T23:52:11.668Z,12.70
2019-05-13T23:54:43.272Z,12.67
2019-05-13T23:57:15.113Z,12.63
2019-05-13T23:59:47.095Z,12.60
